Terminal Aerodrome Forecast
Issued by NWS

Home | Current Version | Previous Version | Text Only | Print | Product List | Glossary On
Versions: 1 2 3 4 5 6 7 8 9 10 11 12 13
950
FTUS45 KFGZ 292333
TAFPGA
TAF
KPGA 292333Z 3000/3024 15009G16KT P6SM FEW120
     FM300200 22007KT P6SM SKC
     FM300300 VRB05KT P6SM SKC=

USA.gov is the U.S. government's official web portal to all federal, state and local government web resources and services.